Time;durP1;ratioP1;P1;durP2;ratioP2;P2;SDS_P1;SDS_P2;PMS_P1;PMS_P2;Temp;Humidity;BMP_temperature;BMP_pressure;BME280_temperature;BME280_humidity;BME280_pressure;Samples;Min_cycle;Max_cycle;Signal;HPM_P1;HPM_P2
2021/09/10 00:02:16;;;;;;;13.90;10.70;;;;;;;;;;4858700;29;20237;-79
2021/09/10 00:05:21;;;;;;;13.23;10.80;;;;;;;;;;4859780;29;20218;-79
2021/09/10 00:08:25;;;;;;;13.10;11.10;;;;;;;;;;4858632;29;20768;-79
2021/09/10 00:11:29;;;;;;;13.13;11.73;;;;;;;;;;4850173;29;20226;-80
2021/09/10 00:14:33;;;;;;;15.67;12.37;;;;;;;;;;4847842;29;20205;-79
2021/09/10 00:17:37;;;;;;;16.97;12.93;;;;;;;;;;4848365;29;20198;-80
2021/09/10 00:20:41;;;;;;;13.40;12.03;;;;;;;;;;4864608;29;20237;-81
2021/09/10 00:23:46;;;;;;;14.13;12.43;;;;;;;;;;4839553;29;20602;-81
2021/09/10 00:26:50;;;;;;;15.03;12.07;;;;;;;;;;4852634;29;20213;-80
2021/09/10 00:29:54;;;;;;;13.93;11.37;;;;;;;;;;4865188;29;20190;-81
2021/09/10 00:32:59;;;;;;;12.30;10.87;;;;;;;;;;4855387;29;20199;-80
2021/09/10 00:36:04;;;;;;;13.27;10.80;;;;;;;;;;4853270;29;20543;-80
2021/09/10 00:39:08;;;;;;;15.03;11.43;;;;;;;;;;4855631;29;20531;-80
2021/09/10 00:42:12;;;;;;;12.80;11.50;;;;;;;;;;4866334;29;20585;-81
2021/09/10 00:45:16;;;;;;;12.60;11.30;;;;;;;;;;4854805;29;20198;-81
2021/09/10 00:48:20;;;;;;;14.13;12.63;;;;;;;;;;4865282;29;20198;-81
2021/09/10 00:51:24;;;;;;;15.80;12.17;;;;;;;;;;4855208;29;20721;-79
2021/09/10 00:54:28;;;;;;;13.63;12.20;;;;;;;;;;4854723;29;20194;-79
2021/09/10 00:57:32;;;;;;;12.53;11.33;;;;;;;;;;4854864;29;20198;-81
2021/09/10 01:00:36;;;;;;;12.53;11.23;;;;;;;;;;4865487;29;20553;-81
2021/09/10 01:03:40;;;;;;;18.33;12.10;;;;;;;;;;4854659;29;20189;-80
2021/09/10 01:06:45;;;;;;;12.40;10.80;;;;;;;;;;4865756;29;20221;-80
2021/09/10 01:09:51;;;;;;;12.70;11.33;;;;;;;;;;4844176;29;20673;-80
2021/09/10 01:13:02;;;;;;;14.93;12.40;;;;;;;;;;4845060;29;20578;-80
2021/09/10 01:16:07;;;;;;;13.37;12.00;;;;;;;;;;4854428;29;20198;-80
2021/09/10 01:19:29;;;;;;;13.87;11.57;;;;;;;;;;4854441;29;20199;-79
2021/09/10 01:22:34;;;;;;;13.33;11.87;;;;;;;;;;4854073;29;20229;-79
2021/09/10 01:25:38;;;;;;;15.30;11.53;;;;;;;;;;4853864;29;20198;-80
2021/09/10 01:28:42;;;;;;;14.70;11.70;;;;;;;;;;4853648;29;20206;-80
2021/09/10 01:31:46;;;;;;;12.70;10.83;;;;;;;;;;4865356;29;20753;-79
2021/09/10 01:34:50;;;;;;;13.60;12.17;;;;;;;;;;4875178;29;20197;-80
2021/09/10 01:37:55;;;;;;;14.87;11.27;;;;;;;;;;4853270;29;20292;-80
2021/09/10 01:40:59;;;;;;;13.73;11.63;;;;;;;;;;4864284;29;20233;-81
2021/09/10 01:44:04;;;;;;;13.50;10.93;;;;;;;;;;4843408;29;20210;-81
2021/09/10 01:47:08;;;;;;;15.13;10.80;;;;;;;;;;4874491;29;20226;-81
2021/09/10 01:50:14;;;;;;;12.50;10.90;;;;;;;;;;4863940;29;20198;-80
2021/09/10 01:53:20;;;;;;;13.60;12.13;;;;;;;;;;4863893;29;20662;-80
2021/09/10 01:56:25;;;;;;;14.50;11.97;;;;;;;;;;4853864;29;20567;-80
2021/09/10 01:59:29;;;;;;;13.23;11.03;;;;;;;;;;4863913;29;20555;-80
2021/09/10 02:02:33;;;;;;;14.97;11.63;;;;;;;;;;4863684;29;20233;-79
2021/09/10 02:05:38;;;;;;;15.13;11.57;;;;;;;;;;4864621;29;20190;-80
2021/09/10 02:08:42;;;;;;;13.20;11.27;;;;;;;;;;4863526;29;20217;-79
2021/09/10 02:11:46;;;;;;;11.73;10.53;;;;;;;;;;4852881;29;20247;-80
2021/09/10 02:14:50;;;;;;;14.80;11.63;;;;;;;;;;4864397;29;20278;-81
2021/09/10 02:17:54;;;;;;;13.73;11.77;;;;;;;;;;4863622;29;20193;-80
2021/09/10 02:20:58;;;;;;;14.67;12.17;;;;;;;;;;4863543;29;20238;-80
2021/09/10 02:24:04;;;;;;;16.63;12.63;;;;;;;;;;4853080;29;20662;-80
2021/09/10 02:27:09;;;;;;;14.27;11.93;;;;;;;;;;4853138;29;20222;-80
2021/09/10 02:30:13;;;;;;;13.00;11.53;;;;;;;;;;4853553;29;20547;-79
2021/09/10 02:33:17;;;;;;;13.57;12.10;;;;;;;;;;4853171;29;20197;-79
2021/09/10 02:36:22;;;;;;;18.20;11.50;;;;;;;;;;4852898;29;20190;-80
2021/09/10 02:39:26;;;;;;;15.37;12.50;;;;;;;;;;4852596;29;20666;-80
2021/09/10 02:42:30;;;;;;;13.70;12.30;;;;;;;;;;4853212;29;20242;-80
2021/09/10 02:45:34;;;;;;;14.77;12.20;;;;;;;;;;4863072;29;20534;-80
2021/09/10 02:48:38;;;;;;;13.43;11.37;;;;;;;;;;4851462;29;20559;-79
2021/09/10 02:51:42;;;;;;;13.10;11.70;;;;;;;;;;4873506;29;20717;-80
2021/09/10 02:54:46;;;;;;;17.03;11.67;;;;;;;;;;4879333;29;20217;-80
2021/09/10 02:57:54;;;;;;;13.53;12.13;;;;;;;;;;4863741;29;20550;-80
2021/09/10 03:00:59;;;;;;;12.33;11.00;;;;;;;;;;4852705;29;20225;-80
2021/09/10 03:04:04;;;;;;;13.63;11.80;;;;;;;;;;4870610;29;20209;-80
2021/09/10 03:07:09;;;;;;;13.50;11.67;;;;;;;;;;4881030;29;20229;-80
2021/09/10 03:10:13;;;;;;;13.37;11.03;;;;;;;;;;4880163;29;20213;-79
2021/09/10 03:13:17;;;;;;;15.20;13.10;;;;;;;;;;4870625;29;20300;-79
2021/09/10 03:16:22;;;;;;;13.93;12.40;;;;;;;;;;4844245;29;20191;-79
2021/09/10 03:19:27;;;;;;;18.63;13.37;;;;;;;;;;4847062;29;20217;-79
2021/09/10 03:22:31;;;;;;;14.67;12.93;;;;;;;;;;4881651;29;20232;-79
2021/09/10 03:25:36;;;;;;;16.53;12.97;;;;;;;;;;4853608;29;20213;-79
2021/09/10 03:28:40;;;;;;;15.43;13.33;;;;;;;;;;4867578;29;20673;-79
2021/09/10 03:31:44;;;;;;;16.17;13.17;;;;;;;;;;4862451;29;20237;-81
2021/09/10 03:34:49;;;;;;;14.73;13.30;;;;;;;;;;4862537;29;20268;-79
2021/09/10 03:37:53;;;;;;;20.97;13.93;;;;;;;;;;4881597;29;20193;-81
2021/09/10 03:40:57;;;;;;;17.70;13.07;;;;;;;;;;4868338;29;20589;-80
2021/09/10 03:44:02;;;;;;;14.07;12.60;;;;;;;;;;4881085;29;20209;-80
2021/09/10 03:47:07;;;;;;;16.27;12.57;;;;;;;;;;4880852;29;20237;-80
2021/09/10 03:50:11;;;;;;;17.87;13.53;;;;;;;;;;4891549;29;20197;-79
2021/09/10 03:53:15;;;;;;;14.83;11.97;;;;;;;;;;4881424;29;20209;-79
2021/09/10 03:56:19;;;;;;;13.87;12.37;;;;;;;;;;4882308;29;20557;-79
2021/09/10 03:59:24;;;;;;;16.17;12.90;;;;;;;;;;4871530;29;20209;-81
2021/09/10 04:02:28;;;;;;;15.77;13.40;;;;;;;;;;4869018;29;20236;-79
2021/09/10 04:05:33;;;;;;;17.00;12.30;;;;;;;;;;4892846;29;20196;-79
2021/09/10 04:08:39;;;;;;;14.93;13.37;;;;;;;;;;4887933;29;20681;-78
2021/09/10 04:11:44;;;;;;;15.90;12.57;;;;;;;;;;4872525;29;20245;-80
2021/09/10 04:14:49;;;;;;;13.77;12.13;;;;;;;;;;4862524;29;20189;-78
2021/09/10 04:17:53;;;;;;;15.43;12.33;;;;;;;;;;4867772;29;20201;-77
2021/09/10 04:20:57;;;;;;;24.47;13.60;;;;;;;;;;4886676;29;20232;-78
2021/09/10 04:24:02;;;;;;;22.50;13.30;;;;;;;;;;4875679;29;20213;-78
2021/09/10 04:27:07;;;;;;;14.47;12.30;;;;;;;;;;4878717;29;20311;-79
2021/09/10 04:30:12;;;;;;;13.30;11.70;;;;;;;;;;4876502;29;20205;-79
2021/09/10 04:33:17;;;;;;;16.70;12.83;;;;;;;;;;4883838;29;20201;-78
2021/09/10 04:36:21;;;;;;;15.97;11.67;;;;;;;;;;4884357;29;20206;-79
2021/09/10 04:39:25;;;;;;;15.43;11.90;;;;;;;;;;4871375;29;20198;-78
2021/09/10 04:42:29;;;;;;;12.50;11.03;;;;;;;;;;4874613;29;20260;-78
2021/09/10 04:45:33;;;;;;;20.47;12.40;;;;;;;;;;4875618;29;20197;-78
2021/09/10 04:48:37;;;;;;;15.40;12.17;;;;;;;;;;4884126;29;20232;-78
2021/09/10 04:51:41;;;;;;;20.50;11.03;;;;;;;;;;4864212;29;20242;-79
2021/09/10 04:54:46;;;;;;;15.10;11.30;;;;;;;;;;4886374;29;20217;-78
2021/09/10 04:57:50;;;;;;;14.60;11.93;;;;;;;;;;4887038;29;20209;-77
2021/09/10 05:00:54;;;;;;;17.77;12.73;;;;;;;;;;4885078;29;20225;-77
2021/09/10 05:03:59;;;;;;;17.50;10.70;;;;;;;;;;4897283;29;20182;-76
2021/09/10 05:07:03;;;;;;;15.60;11.70;;;;;;;;;;4897929;29;20701;-76
2021/09/10 05:10:08;;;;;;;16.37;12.73;;;;;;;;;;4887489;29;20566;-77
2021/09/10 05:13:12;;;;;;;21.57;12.30;;;;;;;;;;4887494;29;20573;-77
2021/09/10 05:16:17;;;;;;;16.77;12.27;;;;;;;;;;4876583;29;20665;-78
2021/09/10 05:19:21;;;;;;;21.17;13.37;;;;;;;;;;4876803;29;20198;-76
2021/09/10 05:22:25;;;;;;;21.63;13.87;;;;;;;;;;4887408;29;20232;-78
2021/09/10 05:25:29;;;;;;;20.20;13.87;;;;;;;;;;4887445;29;20217;-79
2021/09/10 05:28:33;;;;;;;22.40;13.67;;;;;;;;;;4887527;29;20225;-78
2021/09/10 05:31:37;;;;;;;25.83;13.83;;;;;;;;;;4898204;29;20220;-77
2021/09/10 05:34:41;;;;;;;19.03;14.47;;;;;;;;;;4887097;29;20192;-78
2021/09/10 05:37:45;;;;;;;19.27;13.20;;;;;;;;;;4888247;29;20182;-78
2021/09/10 05:40:49;;;;;;;14.97;13.37;;;;;;;;;;4877384;29;20232;-77
2021/09/10 05:43:53;;;;;;;20.43;15.17;;;;;;;;;;4877259;29;20685;-78
2021/09/10 05:46:58;;;;;;;18.73;15.90;;;;;;;;;;4876613;29;20209;-78
2021/09/10 05:50:02;;;;;;;24.07;15.70;;;;;;;;;;4888446;29;20193;-78
2021/09/10 05:53:09;;;;;;;20.43;15.93;;;;;;;;;;4877402;29;20200;-78
2021/09/10 05:56:13;;;;;;;26.47;16.90;;;;;;;;;;4877585;29;20213;-79
2021/09/10 05:59:17;;;;;;;28.20;18.40;;;;;;;;;;4876785;29;20225;-79
2021/09/10 06:02:22;;;;;;;23.37;18.03;;;;;;;;;;4876491;29;20232;-78
2021/09/10 06:05:27;;;;;;;27.70;20.23;;;;;;;;;;4876242;29;20217;-78
2021/09/10 06:08:31;;;;;;;30.37;18.90;;;;;;;;;;4875454;29;20221;-78
2021/09/10 06:11:35;;;;;;;27.20;20.90;;;;;;;;;;4876512;29;20237;-78
2021/09/10 06:14:39;;;;;;;34.33;19.10;;;;;;;;;;4865089;29;20217;-78
2021/09/10 06:17:43;;;;;;;36.57;19.83;;;;;;;;;;4897781;29;20213;-77
2021/09/10 06:20:47;;;;;;;23.93;16.70;;;;;;;;;;4876604;29;20233;-78
2021/09/10 06:23:52;;;;;;;18.30;14.50;;;;;;;;;;4887830;29;20201;-79
2021/09/10 06:26:56;;;;;;;19.33;15.23;;;;;;;;;;4876763;29;20202;-79
2021/09/10 06:30:00;;;;;;;15.53;13.83;;;;;;;;;;4876867;29;20209;-79
2021/09/10 06:33:04;;;;;;;21.40;14.07;;;;;;;;;;4885995;29;20539;-79
2021/09/10 06:36:09;;;;;;;16.87;13.90;;;;;;;;;;4874598;29;20197;-78
2021/09/10 06:39:13;;;;;;;19.87;13.83;;;;;;;;;;4864516;29;20201;-79
2021/09/10 06:42:17;;;;;;;14.67;12.33;;;;;;;;;;4885596;29;20228;-77
2021/09/10 06:45:22;;;;;;;15.90;12.57;;;;;;;;;;4885805;29;20193;-78
2021/09/10 06:48:27;;;;;;;15.77;12.30;;;;;;;;;;4863895;29;20229;-77
2021/09/10 06:51:31;;;;;;;15.47;11.87;;;;;;;;;;4885584;29;20236;-77
2021/09/10 06:54:35;;;;;;;15.00;12.50;;;;;;;;;;4874663;29;20193;-79
2021/09/10 06:57:39;;;;;;;21.87;12.70;;;;;;;;;;4884837;29;20256;-77
2021/09/10 07:00:43;;;;;;;15.07;11.57;;;;;;;;;;4884938;29;20246;-79
2021/09/10 07:03:48;;;;;;;18.30;11.53;;;;;;;;;;4873827;29;20189;-79
2021/09/10 07:06:53;;;;;;;12.73;10.17;;;;;;;;;;4885797;29;20202;-79
2021/09/10 07:09:58;;;;;;;12.37;9.53;;;;;;;;;;4884861;29;20260;-79
2021/09/10 07:13:02;;;;;;;10.77;9.63;;;;;;;;;;4883511;29;20551;-78
2021/09/10 07:16:06;;;;;;;10.43;9.33;;;;;;;;;;4874390;29;20382;-79
2021/09/10 07:19:11;;;;;;;10.20;9.13;;;;;;;;;;4875161;29;20653;-78
2021/09/10 07:22:15;;;;;;;11.83;10.60;;;;;;;;;;4895800;29;20226;-78
2021/09/10 07:25:20;;;;;;;12.13;9.97;;;;;;;;;;4884468;29;20193;-79
2021/09/10 07:28:24;;;;;;;12.40;10.77;;;;;;;;;;4873913;29;20221;-79
2021/09/10 07:31:28;;;;;;;15.93;10.77;;;;;;;;;;4874564;29;20233;-78
2021/09/10 07:34:32;;;;;;;11.50;9.37;;;;;;;;;;4873360;29;20554;-80
2021/09/10 07:37:37;;;;;;;15.10;9.93;;;;;;;;;;4864435;29;20182;-78
2021/09/10 07:40:41;;;;;;;13.27;11.07;;;;;;;;;;4887235;29;20229;-78
2021/09/10 07:43:47;;;;;;;11.90;10.50;;;;;;;;;;4875716;29;20209;-80
2021/09/10 07:46:52;;;;;;;21.60;11.97;;;;;;;;;;4875078;29;20209;-79
2021/09/10 07:49:57;;;;;;;13.07;11.63;;;;;;;;;;4885283;29;20213;-79
2021/09/10 07:53:01;;;;;;;13.53;12.10;;;;;;;;;;4896471;29;20201;-78
2021/09/10 07:56:06;;;;;;;18.57;12.90;;;;;;;;;;4885955;29;20193;-78
2021/09/10 07:59:10;;;;;;;23.40;12.47;;;;;;;;;;4896081;29;20213;-79
2021/09/10 08:02:14;;;;;;;14.53;12.90;;;;;;;;;;4884998;29;20582;-78
2021/09/10 08:05:18;;;;;;;13.43;12.03;;;;;;;;;;4895206;29;20194;-78
2021/09/10 08:08:22;;;;;;;14.57;13.00;;;;;;;;;;4885682;29;20228;-80
2021/09/10 08:11:28;;;;;;;16.80;12.10;;;;;;;;;;4873969;29;20255;-79
2021/09/10 08:14:33;;;;;;;19.97;12.67;;;;;;;;;;4885789;29;20542;-80
2021/09/10 08:17:37;;;;;;;12.93;11.53;;;;;;;;;;4863288;29;20217;-79
2021/09/10 08:20:41;;;;;;;18.00;12.30;;;;;;;;;;4885458;29;20233;-79
2021/09/10 08:23:46;;;;;;;22.07;12.57;;;;;;;;;;4884755;29;20189;-79
2021/09/10 08:26:50;;;;;;;15.60;11.40;;;;;;;;;;4885292;29;20189;-78
2021/09/10 08:29:55;;;;;;;13.67;11.60;;;;;;;;;;4873597;29;20185;-79
2021/09/10 08:32:59;;;;;;;16.10;13.20;;;;;;;;;;4885941;29;20189;-79
2021/09/10 08:36:04;;;;;;;15.43;11.30;;;;;;;;;;4874624;29;20202;-79
2021/09/10 08:39:09;;;;;;;15.60;11.50;;;;;;;;;;4863079;29;20190;-79
2021/09/10 08:42:14;;;;;;;12.73;10.87;;;;;;;;;;4873854;29;20239;-79
2021/09/10 08:45:18;;;;;;;12.20;10.47;;;;;;;;;;4873618;29;20218;-80
2021/09/10 08:48:24;;;;;;;31.17;10.53;;;;;;;;;;4887579;29;20233;-78
2021/09/10 08:51:28;;;;;;;23.30;10.13;;;;;;;;;;4886813;29;20239;-80
2021/09/10 08:54:32;;;;;;;12.83;9.60;;;;;;;;;;4886764;29;20207;-79
2021/09/10 08:57:57;;;;;;;16.07;9.90;;;;;;;;;;4886535;29;20186;-80
2021/09/10 09:01:02;;;;;;;15.73;10.70;;;;;;;;;;4886588;29;20229;-79
2021/09/10 09:04:06;;;;;;;12.65;9.38;;;;;;;;;;4875725;29;20194;-80
2021/09/10 09:07:11;;;;;;;17.25;9.02;;;;;;;;;;4886200;29;20635;-79
2021/09/10 09:10:15;;;;;;;10.10;8.27;;;;;;;;;;4886008;29;20180;-80
2021/09/10 09:13:20;;;;;;;13.27;8.55;;;;;;;;;;4896112;29;20240;-80
2021/09/10 09:16:29;;;;;;;16.38;10.02;;;;;;;;;;4875110;29;20192;-80
2021/09/10 09:19:33;;;;;;;12.18;9.68;;;;;;;;;;4885583;29;20194;-79
2021/09/10 09:22:55;;;;;;;10.45;8.80;;;;;;;;;;4874458;29;20561;-79
2021/09/10 09:25:59;;;;;;;11.35;10.15;;;;;;;;;;4874454;29;20193;-79
2021/09/10 09:29:09;;;;;;;11.50;8.32;;;;;;;;;;4885525;29;20709;-78
2021/09/10 09:32:14;;;;;;;9.93;8.93;;;;;;;;;;4885512;29;20224;-80
2021/09/10 09:35:18;;;;;;;18.27;9.02;;;;;;;;;;4885378;29;20213;-80
2021/09/10 09:38:26;;;;;;;10.50;8.18;;;;;;;;;;4875043;29;20187;-79
2021/09/10 09:41:30;;;;;;;19.33;8.43;;;;;;;;;;4885535;29;20229;-80
2021/09/10 09:44:34;;;;;;;9.52;7.93;;;;;;;;;;4895681;29;20194;-79
2021/09/10 09:47:39;;;;;;;9.77;8.32;;;;;;;;;;4895282;29;20198;-78
2021/09/10 09:50:45;;;;;;;9.60;8.50;;;;;;;;;;4873844;29;20214;-79
2021/09/10 09:53:50;;;;;;;11.27;8.35;;;;;;;;;;4873610;29;20643;-79
2021/09/10 09:56:54;;;;;;;11.88;8.00;;;;;;;;;;4884746;29;20186;-79
2021/09/10 10:00:02;;;;;;;45.63;10.07;;;;;;;;;;4884708;29;20183;-79
2021/09/10 10:03:10;;;;;;;36.60;9.10;;;;;;;;;;4884297;29;20662;-79
2021/09/10 10:06:23;;;;;;;15.55;7.03;;;;;;;;;;4884775;29;20182;-80
2021/09/10 10:09:27;;;;;;;9.20;6.40;;;;;;;;;;4873985;29;20560;-79
2021/09/10 10:12:33;;;;;;;9.98;6.97;;;;;;;;;;4894685;29;20229;-80
2021/09/10 10:15:48;;;;;;;7.63;6.80;;;;;;;;;;4885101;29;20187;-79
2021/09/10 10:18:53;;;;;;;9.82;7.25;;;;;;;;;;4884394;29;20187;-79
2021/09/10 10:22:10;;;;;;;9.07;7.03;;;;;;;;;;4884176;29;20226;-79
2021/09/10 10:25:14;;;;;;;9.82;7.43;;;;;;;;;;4873965;29;20187;-80
2021/09/10 10:28:44;;;;;;;9.13;7.80;;;;;;;;;;4884369;29;20191;-79
2021/09/10 10:32:07;;;;;;;9.95;6.80;;;;;;;;;;4883842;29;20226;-80
2021/09/10 10:35:18;;;;;;;14.13;7.57;;;;;;;;;;4894561;29;20191;-79
2021/09/10 10:38:22;;;;;;;14.32;7.55;;;;;;;;;;4883487;29;20198;-79
2021/09/10 10:41:26;;;;;;;11.07;6.97;;;;;;;;;;4872630;29;20565;-79
2021/09/10 10:44:30;;;;;;;10.55;6.05;;;;;;;;;;4873221;29;20190;-79
2021/09/10 10:47:34;;;;;;;10.93;6.55;;;;;;;;;;4862267;29;20639;-80
2021/09/10 10:50:38;;;;;;;7.00;6.32;;;;;;;;;;4883409;29;20191;-79
2021/09/10 10:53:45;;;;;;;8.07;6.72;;;;;;;;;;4884666;29;20190;-79
2021/09/10 10:56:50;;;;;;;9.10;6.32;;;;;;;;;;4872305;29;20190;-79
2021/09/10 10:59:54;;;;;;;28.48;6.75;;;;;;;;;;4883446;29;20179;-79
2021/09/10 11:03:13;;;;;;;11.77;6.28;;;;;;;;;;4883726;29;20187;-79
2021/09/10 11:06:26;;;;;;;7.75;6.38;;;;;;;;;;4862572;29;20187;-80
2021/09/10 11:09:32;;;;;;;11.55;6.78;;;;;;;;;;4883841;29;20210;-80
2021/09/10 11:12:38;;;;;;;7.88;6.05;;;;;;;;;;4900819;23;20513;-77
2021/09/10 11:15:42;;;;;;;7.65;5.60;;;;;;;;;;4901288;29;20178;-77
2021/09/10 11:18:46;;;;;;;6.75;5.10;;;;;;;;;;4890162;29;20181;-78
2021/09/10 11:22:01;;;;;;;8.35;4.50;;;;;;;;;;4890023;29;20709;-77
2021/09/10 11:25:07;;;;;;;5.82;4.90;;;;;;;;;;4882892;29;20207;-78
2021/09/10 11:28:12;;;;;;;5.63;5.10;;;;;;;;;;4882785;29;20191;-77
2021/09/10 11:31:24;;;;;;;8.98;4.90;;;;;;;;;;4883851;29;20222;-78
2021/09/10 11:34:34;;;;;;;8.93;5.50;;;;;;;;;;4882564;29;20206;-78
2021/09/10 11:37:38;;;;;;;8.70;5.47;;;;;;;;;;4883620;29;20190;-77
2021/09/10 11:40:52;;;;;;;7.95;5.40;;;;;;;;;;4883067;29;20578;-78
2021/09/10 11:44:05;;;;;;;11.88;5.40;;;;;;;;;;4871840;29;20202;-77
2021/09/10 11:47:10;;;;;;;9.40;5.40;;;;;;;;;;4883366;29;20570;-77
2021/09/10 11:50:15;;;;;;;36.88;7.32;;;;;;;;;;4882090;29;20686;-77
2021/09/10 11:53:48;;;;;;;9.70;5.20;;;;;;;;;;4883434;29;20194;-78
2021/09/10 11:56:53;;;;;;;8.18;5.80;;;;;;;;;;4882045;29;20191;-77
2021/09/10 12:00:00;;;;;;;12.07;6.38;;;;;;;;;;4881808;29;20182;-78
2021/09/10 12:03:07;;;;;;;9.65;6.13;;;;;;;;;;4882494;29;20195;-77
2021/09/10 12:06:17;;;;;;;11.05;5.68;;;;;;;;;;4891775;29;20195;-77
2021/09/10 12:09:31;;;;;;;7.97;5.90;;;;;;;;;;4869715;29;20218;-77
2021/09/10 12:12:35;;;;;;;6.18;5.45;;;;;;;;;;4880786;29;20230;-77
2021/09/10 12:15:43;;;;;;;19.58;6.95;;;;;;;;;;4879614;29;20191;-77
2021/09/10 12:19:04;;;;;;;8.93;5.78;;;;;;;;;;4880607;29;20642;-78
2021/09/10 12:22:49;;;;;;;8.27;6.05;;;;;;;;;;4886438;29;20226;-77
2021/09/10 12:26:00;;;;;;;8.70;6.13;;;;;;;;;;4885235;29;20194;-77
2021/09/10 12:29:04;;;;;;;7.85;5.90;;;;;;;;;;4885604;29;20218;-77
2021/09/10 12:32:08;;;;;;;8.05;6.38;;;;;;;;;;4887263;29;20591;-78
2021/09/10 12:35:13;;;;;;;8.15;6.28;;;;;;;;;;4884901;29;20186;-77
2021/09/10 12:38:19;;;;;;;8.88;5.97;;;;;;;;;;4883955;29;20186;-77
2021/09/10 12:41:24;;;;;;;7.07;6.13;;;;;;;;;;4884764;29;20222;-77
2021/09/10 12:44:29;;;;;;;6.68;5.97;;;;;;;;;;4873500;29;20207;-77
2021/09/10 12:47:35;;;;;;;8.73;6.20;;;;;;;;;;4884632;29;20210;-77
2021/09/10 12:50:40;;;;;;;6.57;5.47;;;;;;;;;;4883764;29;20218;-77
2021/09/10 12:53:45;;;;;;;10.80;5.97;;;;;;;;;;4884665;29;20541;-77
2021/09/10 12:56:49;;;;;;;7.05;5.55;;;;;;;;;;4884853;29;20187;-77
2021/09/10 12:59:54;;;;;;;7.22;6.10;;;;;;;;;;4883922;29;20183;-77
2021/09/10 13:02:58;;;;;;;14.18;6.00;;;;;;;;;;4884678;29;20195;-77
2021/09/10 13:06:03;;;;;;;8.18;5.25;;;;;;;;;;4883388;29;20549;-77
2021/09/10 13:09:08;;;;;;;11.38;6.18;;;;;;;;;;4873793;29;20178;-77
2021/09/10 13:12:12;;;;;;;7.93;5.43;;;;;;;;;;4884649;29;20234;-77
2021/09/10 13:15:18;;;;;;;7.15;5.03;;;;;;;;;;4883799;29;20679;-77
2021/09/10 13:18:22;;;;;;;5.20;4.70;;;;;;;;;;4884986;29;20186;-77
2021/09/10 13:21:27;;;;;;;6.82;4.93;;;;;;;;;;4883867;29;20218;-77
2021/09/10 13:24:31;;;;;;;7.45;4.63;;;;;;;;;;4884206;29;20187;-77
2021/09/10 13:27:36;;;;;;;13.45;5.22;;;;;;;;;;4884727;29;20210;-77
2021/09/10 13:30:41;;;;;;;6.70;5.22;;;;;;;;;;4883933;29;20226;-77
2021/09/10 13:33:46;;;;;;;8.38;4.13;;;;;;;;;;4885568;29;20191;-77
2021/09/10 13:36:51;;;;;;;74.80;8.18;;;;;;;;;;4884644;29;20187;-78
2021/09/10 13:39:56;;;;;;;6.90;4.80;;;;;;;;;;4885425;29;20183;-78
2021/09/10 13:43:03;;;;;;;8.30;4.53;;;;;;;;;;4885771;29;20191;-77
2021/09/10 13:46:08;;;;;;;10.95;4.88;;;;;;;;;;4885228;29;20187;-77
2021/09/10 13:49:12;;;;;;;5.95;4.65;;;;;;;;;;4884242;29;20191;-78
2021/09/10 13:52:18;;;;;;;6.78;4.60;;;;;;;;;;4884549;29;20222;-78
2021/09/10 13:55:22;;;;;;;8.57;4.80;;;;;;;;;;4873052;29;20210;-77
2021/09/10 13:58:26;;;;;;;9.35;5.00;;;;;;;;;;4883545;29;20178;-78
2021/09/10 14:01:32;;;;;;;8.93;4.60;;;;;;;;;;4883442;29;20206;-77
2021/09/10 14:04:38;;;;;;;5.40;4.85;;;;;;;;;;4883914;29;20187;-78
2021/09/10 14:07:43;;;;;;;7.75;4.90;;;;;;;;;;4883106;29;20186;-78
2021/09/10 14:10:47;;;;;;;5.85;5.25;;;;;;;;;;4883710;29;20234;-78
2021/09/10 14:13:51;;;;;;;40.67;7.18;;;;;;;;;;4883184;29;20568;-78
2021/09/10 14:16:56;;;;;;;7.78;4.90;;;;;;;;;;4885236;29;20186;-78
2021/09/10 14:20:02;;;;;;;9.27;4.75;;;;;;;;;;4872758;29;20183;-77
2021/09/10 14:23:07;;;;;;;7.25;4.78;;;;;;;;;;4883624;29;20183;-77
2021/09/10 14:26:12;;;;;;;7.35;5.70;;;;;;;;;;4884081;29;20190;-78
2021/09/10 14:29:17;;;;;;;6.95;5.43;;;;;;;;;;4883612;29;20186;-77
2021/09/10 14:32:21;;;;;;;6.25;5.65;;;;;;;;;;4883522;29;20709;-78
2021/09/10 14:35:25;;;;;;;5.15;4.68;;;;;;;;;;4883808;29;20187;-77
2021/09/10 14:38:29;;;;;;;19.60;5.90;;;;;;;;;;4882197;29;20210;-77
2021/09/10 14:41:34;;;;;;;7.40;5.88;;;;;;;;;;4881649;29;20222;-77
2021/09/10 14:44:38;;;;;;;10.05;5.55;;;;;;;;;;4878773;29;20206;-80
2021/09/10 14:47:42;;;;;;;18.42;5.72;;;;;;;;;;4878085;29;20214;-78
2021/09/10 14:50:46;;;;;;;6.07;5.47;;;;;;;;;;4877531;29;20620;-79
2021/09/10 14:53:51;;;;;;;7.22;5.85;;;;;;;;;;4878890;29;20206;-79
2021/09/10 14:56:55;;;;;;;13.15;5.43;;;;;;;;;;4877523;29;20206;-78
2021/09/10 15:00:14;;;;;;;6.50;5.90;;;;;;;;;;4877054;29;20179;-78
2021/09/10 15:03:18;;;;;;;9.00;6.03;;;;;;;;;;4879560;29;20194;-78
2021/09/10 15:06:23;;;;;;;7.03;6.40;;;;;;;;;;4866464;29;20198;-78
2021/09/10 15:09:27;;;;;;;9.85;6.30;;;;;;;;;;4877983;29;20186;-79
2021/09/10 15:12:31;;;;;;;6.05;5.45;;;;;;;;;;4876891;29;20218;-79
2021/09/10 15:15:37;;;;;;;6.30;5.72;;;;;;;;;;4876990;29;20274;-78
2021/09/10 15:18:41;;;;;;;8.65;6.35;;;;;;;;;;4866607;29;20183;-78
2021/09/10 15:21:47;;;;;;;18.60;6.57;;;;;;;;;;4877595;29;20225;-78
2021/09/10 15:24:51;;;;;;;10.90;6.72;;;;;;;;;;4879622;29;20185;-79
2021/09/10 15:27:55;;;;;;;10.73;6.85;;;;;;;;;;4880039;29;20189;-77
2021/09/10 15:30:59;;;;;;;6.78;5.65;;;;;;;;;;4881342;29;20240;-78
2021/09/10 15:34:03;;;;;;;8.52;5.80;;;;;;;;;;4881153;29;20203;-77
2021/09/10 15:37:08;;;;;;;8.30;5.78;;;;;;;;;;4880529;29;20639;-78
2021/09/10 15:40:12;;;;;;;6.53;5.38;;;;;;;;;;4880575;29;20180;-77
2021/09/10 15:43:17;;;;;;;6.82;5.85;;;;;;;;;;4880652;29;20191;-79
2021/09/10 15:46:21;;;;;;;7.68;5.57;;;;;;;;;;4881434;29;20192;-77
2021/09/10 15:49:25;;;;;;;12.35;6.43;;;;;;;;;;4869808;29;20185;-78
2021/09/10 15:52:29;;;;;;;6.35;5.75;;;;;;;;;;4881437;29;20211;-77
2021/09/10 15:55:35;;;;;;;6.78;5.55;;;;;;;;;;4881810;29;20206;-77
2021/09/10 15:58:39;;;;;;;6.20;5.60;;;;;;;;;;4884408;29;20184;-77
2021/09/10 16:01:43;;;;;;;6.70;5.90;;;;;;;;;;4883178;29;20211;-77
2021/09/10 16:04:47;;;;;;;5.85;5.25;;;;;;;;;;4883612;29;20217;-77
2021/09/10 16:07:51;;;;;;;6.90;5.80;;;;;;;;;;4883897;29;20215;-77
2021/09/10 16:10:56;;;;;;;6.80;6.20;;;;;;;;;;4882784;29;20237;-77
2021/09/10 16:14:00;;;;;;;8.15;6.10;;;;;;;;;;4883378;29;20214;-77
2021/09/10 16:17:04;;;;;;;15.50;6.20;;;;;;;;;;4872443;29;20187;-77
2021/09/10 16:20:09;;;;;;;9.45;7.10;;;;;;;;;;4872101;29;20179;-77
2021/09/10 16:23:14;;;;;;;8.90;6.68;;;;;;;;;;4883818;29;20184;-77
2021/09/10 16:26:18;;;;;;;7.53;6.47;;;;;;;;;;4884059;29;20182;-78
2021/09/10 16:29:22;;;;;;;7.82;6.80;;;;;;;;;;4882847;29;20552;-77
2021/09/10 16:32:26;;;;;;;10.30;7.47;;;;;;;;;;4872146;29;20217;-77
2021/09/10 16:35:30;;;;;;;8.13;6.95;;;;;;;;;;4884069;29;20202;-77
2021/09/10 16:38:34;;;;;;;8.90;7.20;;;;;;;;;;4882878;29;20669;-77
2021/09/10 16:41:38;;;;;;;10.13;7.67;;;;;;;;;;4883031;29;20211;-77
2021/09/10 16:44:42;;;;;;;11.87;8.53;;;;;;;;;;4883499;29;20623;-77
2021/09/10 16:47:47;;;;;;;9.70;8.30;;;;;;;;;;4882256;29;20195;-77
2021/09/10 16:50:51;;;;;;;11.57;9.03;;;;;;;;;;4882198;29;20243;-77
2021/09/10 16:53:55;;;;;;;9.43;7.73;;;;;;;;;;4883204;29;20638;-77
2021/09/10 16:57:02;;;;;;;11.23;8.50;;;;;;;;;;4882433;29;20189;-78
2021/09/10 17:00:06;;;;;;;11.33;9.30;;;;;;;;;;4882479;29;20206;-77
2021/09/10 17:03:11;;;;;;;9.70;8.67;;;;;;;;;;4872781;29;20206;-78
2021/09/10 17:06:15;;;;;;;9.40;8.30;;;;;;;;;;4884272;29;20185;-77
2021/09/10 17:09:19;;;;;;;9.40;8.10;;;;;;;;;;4872073;29;20204;-78
2021/09/10 17:12:23;;;;;;;8.80;7.90;;;;;;;;;;4882393;29;20566;-78
2021/09/10 17:15:30;;;;;;;9.90;8.33;;;;;;;;;;4913024;23;20575;-79
2021/09/10 17:18:34;;;;;;;10.13;8.33;;;;;;;;;;4893536;29;20182;-79
2021/09/10 17:21:38;;;;;;;10.77;9.10;;;;;;;;;;4893435;29;20218;-79
2021/09/10 17:24:42;;;;;;;16.77;9.03;;;;;;;;;;4885011;29;20182;-80
2021/09/10 17:27:46;;;;;;;16.33;10.47;;;;;;;;;;4874354;29;20227;-80
2021/09/10 17:30:51;;;;;;;27.03;10.30;;;;;;;;;;4886034;29;20240;-80
2021/09/10 17:33:56;;;;;;;13.50;10.13;;;;;;;;;;4874585;29;20207;-79
2021/09/10 17:37:00;;;;;;;13.87;9.43;;;;;;;;;;4885146;29;20210;-79
2021/09/10 17:40:06;;;;;;;10.77;9.33;;;;;;;;;;4885864;29;20519;-80
2021/09/10 17:43:10;;;;;;;13.90;10.00;;;;;;;;;;4874145;29;20199;-79
2021/09/10 17:46:14;;;;;;;11.80;10.60;;;;;;;;;;4884863;29;20268;-79
2021/09/10 17:49:19;;;;;;;13.00;10.33;;;;;;;;;;4884455;29;20197;-80
2021/09/10 17:52:23;;;;;;;13.67;10.60;;;;;;;;;;4883970;29;20245;-80
2021/09/10 17:55:29;;;;;;;13.47;10.00;;;;;;;;;;4885313;29;20546;-79
2021/09/10 17:58:33;;;;;;;17.43;11.13;;;;;;;;;;4874276;29;20554;-79
2021/09/10 18:01:37;;;;;;;15.47;11.23;;;;;;;;;;4874144;29;20713;-78
2021/09/10 18:04:41;;;;;;;12.20;10.93;;;;;;;;;;4873594;29;20189;-80
2021/09/10 18:07:46;;;;;;;12.97;11.33;;;;;;;;;;4884318;29;20197;-79
2021/09/10 18:10:50;;;;;;;18.27;11.37;;;;;;;;;;4873577;29;20257;-80